sensor_id;sensor_type;location;lat;lon;timestamp;P1;durP1;ratioP1;P2;durP2;ratioP2
59074;SDS011;44860;53.020;6.738;2023-04-25T00:01:45;16.73;;;4.95;;
59074;SDS011;44860;53.020;6.738;2023-04-25T00:04:11;20.15;;;5.05;;
59074;SDS011;44860;53.020;6.738;2023-04-25T00:06:37;18.92;;;4.72;;
59074;SDS011;44860;53.020;6.738;2023-04-25T00:09:06;19.15;;;4.45;;
59074;SDS011;44860;53.020;6.738;2023-04-25T00:11:36;17.02;;;4.47;;
59074;SDS011;44860;53.020;6.738;2023-04-25T00:14:02;20.10;;;4.85;;
59074;SDS011;44860;53.020;6.738;2023-04-25T00:16:29;25.15;;;5.85;;
59074;SDS011;44860;53.020;6.738;2023-04-25T00:18:58;24.77;;;4.85;;
59074;SDS011;44860;53.020;6.738;2023-04-25T00:21:24;19.75;;;4.43;;
59074;SDS011;44860;53.020;6.738;2023-04-25T00:23:51;20.80;;;5.10;;
59074;SDS011;44860;53.020;6.738;2023-04-25T00:26:17;23.23;;;5.32;;
59074;SDS011;44860;53.020;6.738;2023-04-25T00:28:43;19.98;;;4.60;;
59074;SDS011;44860;53.020;6.738;2023-04-25T00:31:09;20.95;;;4.82;;
59074;SDS011;44860;53.020;6.738;2023-04-25T00:33:34;21.67;;;4.65;;
59074;SDS011;44860;53.020;6.738;2023-04-25T00:36:01;23.42;;;4.90;;
59074;SDS011;44860;53.020;6.738;2023-04-25T00:38:26;21.17;;;5.15;;
59074;SDS011;44860;53.020;6.738;2023-04-25T00:40:52;23.10;;;5.18;;
59074;SDS011;44860;53.020;6.738;2023-04-25T00:43:18;20.58;;;5.03;;
59074;SDS011;44860;53.020;6.738;2023-04-25T00:45:43;24.92;;;5.05;;
59074;SDS011;44860;53.020;6.738;2023-04-25T00:48:16;24.50;;;5.25;;
59074;SDS011;44860;53.020;6.738;2023-04-25T00:50:43;25.50;;;5.63;;
59074;SDS011;44860;53.020;6.738;2023-04-25T00:53:19;21.73;;;5.30;;
59074;SDS011;44860;53.020;6.738;2023-04-25T00:55:49;20.10;;;5.28;;
59074;SDS011;44860;53.020;6.738;2023-04-25T00:58:19;21.08;;;5.20;;
59074;SDS011;44860;53.020;6.738;2023-04-25T01:00:46;22.52;;;4.60;;
59074;SDS011;44860;53.020;6.738;2023-04-25T01:03:13;21.30;;;5.22;;
59074;SDS011;44860;53.020;6.738;2023-04-25T01:05:41;18.10;;;4.35;;
59074;SDS011;44860;53.020;6.738;2023-04-25T01:08:07;26.17;;;5.40;;
59074;SDS011;44860;53.020;6.738;2023-04-25T01:10:33;21.83;;;4.85;;
59074;SDS011;44860;53.020;6.738;2023-04-25T01:12:59;21.50;;;4.32;;
59074;SDS011;44860;53.020;6.738;2023-04-25T01:15:25;23.08;;;5.18;;
59074;SDS011;44860;53.020;6.738;2023-04-25T01:17:54;21.52;;;4.53;;
59074;SDS011;44860;53.020;6.738;2023-04-25T01:20:23;20.75;;;4.55;;
59074;SDS011;44860;53.020;6.738;2023-04-25T01:22:50;19.92;;;4.28;;
59074;SDS011;44860;53.020;6.738;2023-04-25T01:25:18;20.13;;;4.40;;
59074;SDS011;44860;53.020;6.738;2023-04-25T01:27:44;18.70;;;4.55;;
59074;SDS011;44860;53.020;6.738;2023-04-25T01:30:11;16.58;;;4.20;;
59074;SDS011;44860;53.020;6.738;2023-04-25T01:32:39;20.83;;;4.57;;
59074;SDS011;44860;53.020;6.738;2023-04-25T01:35:07;25.55;;;4.95;;
59074;SDS011;44860;53.020;6.738;2023-04-25T01:37:38;21.80;;;4.40;;
59074;SDS011;44860;53.020;6.738;2023-04-25T01:40:05;18.75;;;4.03;;
59074;SDS011;44860;53.020;6.738;2023-04-25T01:42:32;19.63;;;4.57;;
59074;SDS011;44860;53.020;6.738;2023-04-25T01:44:59;15.55;;;4.28;;
59074;SDS011;44860;53.020;6.738;2023-04-25T01:47:25;19.73;;;4.50;;
59074;SDS011;44860;53.020;6.738;2023-04-25T01:49:51;20.98;;;3.80;;
59074;SDS011;44860;53.020;6.738;2023-04-25T01:52:16;23.13;;;4.97;;
59074;SDS011;44860;53.020;6.738;2023-04-25T01:54:42;18.77;;;3.97;;
59074;SDS011;44860;53.020;6.738;2023-04-25T01:57:12;21.77;;;4.72;;
59074;SDS011;44860;53.020;6.738;2023-04-25T01:59:38;16.65;;;4.07;;
59074;SDS011;44860;53.020;6.738;2023-04-25T02:02:05;20.02;;;4.50;;
59074;SDS011;44860;53.020;6.738;2023-04-25T02:04:31;16.02;;;3.47;;
59074;SDS011;44860;53.020;6.738;2023-04-25T02:06:57;16.35;;;3.40;;
59074;SDS011;44860;53.020;6.738;2023-04-25T02:09:23;20.27;;;4.63;;
59074;SDS011;44860;53.020;6.738;2023-04-25T02:11:49;17.95;;;4.32;;
59074;SDS011;44860;53.020;6.738;2023-04-25T02:14:14;15.07;;;3.70;;
59074;SDS011;44860;53.020;6.738;2023-04-25T02:16:40;10.55;;;3.55;;
59074;SDS011;44860;53.020;6.738;2023-04-25T02:19:09;17.25;;;3.90;;
59074;SDS011;44860;53.020;6.738;2023-04-25T02:21:35;19.05;;;3.75;;
59074;SDS011;44860;53.020;6.738;2023-04-25T02:24:01;18.55;;;3.67;;
59074;SDS011;44860;53.020;6.738;2023-04-25T02:26:28;12.95;;;3.13;;
59074;SDS011;44860;53.020;6.738;2023-04-25T02:28:53;12.40;;;3.17;;
59074;SDS011;44860;53.020;6.738;2023-04-25T02:31:19;13.68;;;2.88;;
59074;SDS011;44860;53.020;6.738;2023-04-25T02:33:45;17.17;;;3.55;;
59074;SDS011;44860;53.020;6.738;2023-04-25T02:36:11;18.75;;;3.60;;
59074;SDS011;44860;53.020;6.738;2023-04-25T02:38:36;20.30;;;3.70;;
59074;SDS011;44860;53.020;6.738;2023-04-25T02:41:02;21.80;;;3.03;;
59074;SDS011;44860;53.020;6.738;2023-04-25T02:43:28;16.63;;;3.53;;
59074;SDS011;44860;53.020;6.738;2023-04-25T02:45:53;18.27;;;3.50;;
59074;SDS011;44860;53.020;6.738;2023-04-25T02:48:19;15.27;;;3.50;;
59074;SDS011;44860;53.020;6.738;2023-04-25T02:50:45;18.23;;;3.47;;
59074;SDS011;44860;53.020;6.738;2023-04-25T02:53:11;14.45;;;3.28;;
59074;SDS011;44860;53.020;6.738;2023-04-25T02:55:36;14.27;;;3.40;;
59074;SDS011;44860;53.020;6.738;2023-04-25T02:58:02;14.77;;;3.20;;
59074;SDS011;44860;53.020;6.738;2023-04-25T03:00:29;14.43;;;4.10;;
59074;SDS011;44860;53.020;6.738;2023-04-25T03:02:55;15.27;;;3.53;;
59074;SDS011;44860;53.020;6.738;2023-04-25T03:05:21;12.73;;;2.78;;
59074;SDS011;44860;53.020;6.738;2023-04-25T03:07:46;12.98;;;3.20;;
59074;SDS011;44860;53.020;6.738;2023-04-25T03:10:12;15.40;;;3.00;;
59074;SDS011;44860;53.020;6.738;2023-04-25T03:12:38;14.88;;;3.05;;
59074;SDS011;44860;53.020;6.738;2023-04-25T03:15:04;14.38;;;3.40;;
59074;SDS011;44860;53.020;6.738;2023-04-25T03:17:30;14.48;;;2.85;;
59074;SDS011;44860;53.020;6.738;2023-04-25T03:19:57;17.10;;;3.00;;
59074;SDS011;44860;53.020;6.738;2023-04-25T03:22:23;14.07;;;3.15;;
59074;SDS011;44860;53.020;6.738;2023-04-25T03:24:49;12.77;;;2.72;;
59074;SDS011;44860;53.020;6.738;2023-04-25T03:27:15;11.00;;;3.08;;
59074;SDS011;44860;53.020;6.738;2023-04-25T03:29:41;14.98;;;2.70;;
59074;SDS011;44860;53.020;6.738;2023-04-25T03:32:07;17.30;;;3.85;;
59074;SDS011;44860;53.020;6.738;2023-04-25T03:34:32;19.92;;;3.15;;
59074;SDS011;44860;53.020;6.738;2023-04-25T03:36:58;19.15;;;3.28;;
59074;SDS011;44860;53.020;6.738;2023-04-25T03:39:25;17.75;;;3.75;;
59074;SDS011;44860;53.020;6.738;2023-04-25T03:41:50;16.42;;;3.08;;
59074;SDS011;44860;53.020;6.738;2023-04-25T03:44:16;19.35;;;3.45;;
59074;SDS011;44860;53.020;6.738;2023-04-25T03:46:42;15.52;;;3.05;;
59074;SDS011;44860;53.020;6.738;2023-04-25T03:49:07;13.27;;;3.03;;
59074;SDS011;44860;53.020;6.738;2023-04-25T03:51:33;15.38;;;3.17;;
59074;SDS011;44860;53.020;6.738;2023-04-25T03:53:59;16.50;;;3.17;;
59074;SDS011;44860;53.020;6.738;2023-04-25T03:56:24;11.65;;;3.08;;
59074;SDS011;44860;53.020;6.738;2023-04-25T03:58:50;16.17;;;2.85;;
59074;SDS011;44860;53.020;6.738;2023-04-25T04:01:15;16.75;;;3.17;;
59074;SDS011;44860;53.020;6.738;2023-04-25T04:03:41;17.73;;;3.65;;
59074;SDS011;44860;53.020;6.738;2023-04-25T04:06:07;17.55;;;3.65;;
59074;SDS011;44860;53.020;6.738;2023-04-25T04:08:33;16.42;;;3.15;;
59074;SDS011;44860;53.020;6.738;2023-04-25T04:11:00;15.60;;;2.97;;
59074;SDS011;44860;53.020;6.738;2023-04-25T04:13:28;17.20;;;3.03;;
59074;SDS011;44860;53.020;6.738;2023-04-25T04:15:54;13.68;;;2.90;;
59074;SDS011;44860;53.020;6.738;2023-04-25T04:18:20;13.20;;;2.65;;
59074;SDS011;44860;53.020;6.738;2023-04-25T04:20:46;18.23;;;3.75;;
59074;SDS011;44860;53.020;6.738;2023-04-25T04:23:12;16.42;;;2.75;;
59074;SDS011;44860;53.020;6.738;2023-04-25T04:25:38;16.42;;;3.45;;
59074;SDS011;44860;53.020;6.738;2023-04-25T04:28:04;12.80;;;3.22;;
59074;SDS011;44860;53.020;6.738;2023-04-25T04:30:31;14.32;;;3.30;;
59074;SDS011;44860;53.020;6.738;2023-04-25T04:32:58;12.23;;;2.58;;
59074;SDS011;44860;53.020;6.738;2023-04-25T04:35:23;14.70;;;2.83;;
59074;SDS011;44860;53.020;6.738;2023-04-25T04:37:49;12.10;;;2.80;;
59074;SDS011;44860;53.020;6.738;2023-04-25T04:40:15;11.90;;;2.72;;
59074;SDS011;44860;53.020;6.738;2023-04-25T04:42:43;9.38;;;2.58;;
59074;SDS011;44860;53.020;6.738;2023-04-25T04:45:13;13.15;;;2.35;;
59074;SDS011;44860;53.020;6.738;2023-04-25T04:47:39;15.13;;;2.72;;
59074;SDS011;44860;53.020;6.738;2023-04-25T04:50:09;12.93;;;2.63;;
59074;SDS011;44860;53.020;6.738;2023-04-25T04:52:35;14.57;;;2.88;;
59074;SDS011;44860;53.020;6.738;2023-04-25T04:55:02;15.05;;;3.05;;
59074;SDS011;44860;53.020;6.738;2023-04-25T04:57:29;15.75;;;2.45;;
59074;SDS011;44860;53.020;6.738;2023-04-25T04:59:56;12.60;;;3.20;;
59074;SDS011;44860;53.020;6.738;2023-04-25T05:02:21;14.70;;;3.25;;
59074;SDS011;44860;53.020;6.738;2023-04-25T05:04:47;13.25;;;2.95;;
59074;SDS011;44860;53.020;6.738;2023-04-25T05:07:13;13.65;;;2.30;;
59074;SDS011;44860;53.020;6.738;2023-04-25T05:09:38;12.75;;;3.28;;
59074;SDS011;44860;53.020;6.738;2023-04-25T05:12:04;13.27;;;2.67;;
59074;SDS011;44860;53.020;6.738;2023-04-25T05:14:30;9.68;;;2.47;;
59074;SDS011;44860;53.020;6.738;2023-04-25T05:16:56;12.65;;;2.10;;
59074;SDS011;44860;53.020;6.738;2023-04-25T05:19:21;10.25;;;2.50;;
59074;SDS011;44860;53.020;6.738;2023-04-25T05:21:48;11.35;;;2.10;;
59074;SDS011;44860;53.020;6.738;2023-04-25T05:24:14;9.70;;;2.17;;
59074;SDS011;44860;53.020;6.738;2023-04-25T05:26:40;16.02;;;2.70;;
59074;SDS011;44860;53.020;6.738;2023-04-25T05:29:05;8.45;;;2.13;;
59074;SDS011;44860;53.020;6.738;2023-04-25T05:31:31;10.55;;;2.10;;
59074;SDS011;44860;53.020;6.738;2023-04-25T05:33:57;11.35;;;2.45;;
59074;SDS011;44860;53.020;6.738;2023-04-25T05:36:23;13.88;;;2.42;;
59074;SDS011;44860;53.020;6.738;2023-04-25T05:38:49;11.52;;;2.47;;
59074;SDS011;44860;53.020;6.738;2023-04-25T05:41:14;10.00;;;2.78;;
59074;SDS011;44860;53.020;6.738;2023-04-25T05:43:40;12.25;;;2.60;;
59074;SDS011;44860;53.020;6.738;2023-04-25T05:46:10;14.57;;;2.78;;
59074;SDS011;44860;53.020;6.738;2023-04-25T05:48:37;13.20;;;2.70;;
59074;SDS011;44860;53.020;6.738;2023-04-25T05:51:03;10.82;;;2.80;;
59074;SDS011;44860;53.020;6.738;2023-04-25T05:53:28;10.13;;;2.40;;
59074;SDS011;44860;53.020;6.738;2023-04-25T05:55:54;12.18;;;2.60;;
59074;SDS011;44860;53.020;6.738;2023-04-25T05:58:20;14.48;;;2.55;;
59074;SDS011;44860;53.020;6.738;2023-04-25T06:00:45;13.18;;;2.70;;
59074;SDS011;44860;53.020;6.738;2023-04-25T06:03:11;10.10;;;2.35;;
59074;SDS011;44860;53.020;6.738;2023-04-25T06:05:40;14.25;;;3.05;;
59074;SDS011;44860;53.020;6.738;2023-04-25T06:08:06;15.52;;;2.45;;
59074;SDS011;44860;53.020;6.738;2023-04-25T06:10:32;13.63;;;2.53;;
59074;SDS011;44860;53.020;6.738;2023-04-25T06:12:57;13.50;;;2.92;;
59074;SDS011;44860;53.020;6.738;2023-04-25T06:15:23;14.35;;;2.67;;
59074;SDS011;44860;53.020;6.738;2023-04-25T06:17:49;11.00;;;2.10;;
59074;SDS011;44860;53.020;6.738;2023-04-25T06:20:14;8.95;;;2.30;;
59074;SDS011;44860;53.020;6.738;2023-04-25T06:22:40;11.68;;;2.78;;
59074;SDS011;44860;53.020;6.738;2023-04-25T06:25:06;16.65;;;2.35;;
59074;SDS011;44860;53.020;6.738;2023-04-25T06:27:33;13.07;;;2.60;;
59074;SDS011;44860;53.020;6.738;2023-04-25T06:29:59;14.25;;;2.75;;
59074;SDS011;44860;53.020;6.738;2023-04-25T06:32:25;15.13;;;3.22;;
59074;SDS011;44860;53.020;6.738;2023-04-25T06:34:52;15.43;;;3.28;;
59074;SDS011;44860;53.020;6.738;2023-04-25T06:37:18;11.85;;;2.47;;
59074;SDS011;44860;53.020;6.738;2023-04-25T06:39:44;13.90;;;2.40;;
59074;SDS011;44860;53.020;6.738;2023-04-25T06:42:09;13.68;;;2.55;;
59074;SDS011;44860;53.020;6.738;2023-04-25T06:44:35;15.90;;;2.50;;
59074;SDS011;44860;53.020;6.738;2023-04-25T06:47:01;13.88;;;2.55;;
59074;SDS011;44860;53.020;6.738;2023-04-25T06:49:27;11.25;;;2.60;;
59074;SDS011;44860;53.020;6.738;2023-04-25T06:51:52;16.08;;;2.97;;
59074;SDS011;44860;53.020;6.738;2023-04-25T06:54:18;15.07;;;2.45;;
59074;SDS011;44860;53.020;6.738;2023-04-25T06:56:43;13.55;;;2.75;;
59074;SDS011;44860;53.020;6.738;2023-04-25T06:59:09;15.73;;;2.58;;
59074;SDS011;44860;53.020;6.738;2023-04-25T07:01:35;15.00;;;3.42;;
59074;SDS011;44860;53.020;6.738;2023-04-25T07:04:00;10.50;;;2.08;;
59074;SDS011;44860;53.020;6.738;2023-04-25T07:06:26;11.88;;;2.65;;
59074;SDS011;44860;53.020;6.738;2023-04-25T07:08:53;10.48;;;2.20;;
59074;SDS011;44860;53.020;6.738;2023-04-25T07:11:18;12.80;;;2.70;;
59074;SDS011;44860;53.020;6.738;2023-04-25T07:13:44;13.68;;;2.30;;
59074;SDS011;44860;53.020;6.738;2023-04-25T07:16:10;10.30;;;1.88;;
59074;SDS011;44860;53.020;6.738;2023-04-25T07:18:36;10.20;;;2.05;;
59074;SDS011;44860;53.020;6.738;2023-04-25T07:21:01;11.18;;;2.40;;
59074;SDS011;44860;53.020;6.738;2023-04-25T07:23:27;10.75;;;2.25;;
59074;SDS011;44860;53.020;6.738;2023-04-25T07:25:53;12.27;;;2.05;;
59074;SDS011;44860;53.020;6.738;2023-04-25T07:28:18;14.35;;;2.10;;
59074;SDS011;44860;53.020;6.738;2023-04-25T07:30:44;11.13;;;1.98;;
59074;SDS011;44860;53.020;6.738;2023-04-25T07:33:10;9.65;;;2.00;;
59074;SDS011;44860;53.020;6.738;2023-04-25T07:35:35;10.32;;;2.28;;
59074;SDS011;44860;53.020;6.738;2023-04-25T07:38:02;10.23;;;2.00;;
59074;SDS011;44860;53.020;6.738;2023-04-25T07:40:28;12.88;;;2.13;;
59074;SDS011;44860;53.020;6.738;2023-04-25T07:42:53;10.07;;;2.17;;
59074;SDS011;44860;53.020;6.738;2023-04-25T07:45:19;6.95;;;1.80;;
59074;SDS011;44860;53.020;6.738;2023-04-25T07:47:44;7.43;;;2.05;;
59074;SDS011;44860;53.020;6.738;2023-04-25T07:50:10;7.22;;;1.50;;
59074;SDS011;44860;53.020;6.738;2023-04-25T07:52:36;9.20;;;1.98;;
59074;SDS011;44860;53.020;6.738;2023-04-25T07:55:02;7.88;;;1.65;;
59074;SDS011;44860;53.020;6.738;2023-04-25T07:57:28;7.88;;;1.50;;
59074;SDS011;44860;53.020;6.738;2023-04-25T07:59:54;6.20;;;1.73;;
59074;SDS011;44860;53.020;6.738;2023-04-25T08:02:20;12.82;;;1.85;;
59074;SDS011;44860;53.020;6.738;2023-04-25T08:04:45;9.00;;;1.42;;
59074;SDS011;44860;53.020;6.738;2023-04-25T08:07:11;8.52;;;1.73;;
59074;SDS011;44860;53.020;6.738;2023-04-25T08:09:37;11.05;;;1.50;;
59074;SDS011;44860;53.020;6.738;2023-04-25T08:12:03;8.73;;;1.52;;
59074;SDS011;44860;53.020;6.738;2023-04-25T08:14:29;10.05;;;1.63;;
59074;SDS011;44860;53.020;6.738;2023-04-25T08:17:00;12.73;;;2.13;;
59074;SDS011;44860;53.020;6.738;2023-04-25T08:19:29;7.82;;;1.70;;
59074;SDS011;44860;53.020;6.738;2023-04-25T08:21:55;8.07;;;1.80;;
59074;SDS011;44860;53.020;6.738;2023-04-25T08:24:21;11.77;;;2.20;;
59074;SDS011;44860;53.020;6.738;2023-04-25T08:26:48;11.30;;;1.73;;
59074;SDS011;44860;53.020;6.738;2023-04-25T08:29:13;12.25;;;2.40;;
59074;SDS011;44860;53.020;6.738;2023-04-25T08:31:39;7.50;;;1.63;;
59074;SDS011;44860;53.020;6.738;2023-04-25T08:34:05;7.18;;;1.67;;
59074;SDS011;44860;53.020;6.738;2023-04-25T08:36:31;7.53;;;1.88;;
59074;SDS011;44860;53.020;6.738;2023-04-25T08:38:57;8.55;;;1.90;;
59074;SDS011;44860;53.020;6.738;2023-04-25T08:41:23;11.57;;;1.92;;
59074;SDS011;44860;53.020;6.738;2023-04-25T08:43:49;6.65;;;2.08;;
59074;SDS011;44860;53.020;6.738;2023-04-25T08:46:17;9.50;;;1.73;;
59074;SDS011;44860;53.020;6.738;2023-04-25T08:48:44;8.18;;;1.60;;
59074;SDS011;44860;53.020;6.738;2023-04-25T08:51:13;4.43;;;1.25;;
59074;SDS011;44860;53.020;6.738;2023-04-25T08:53:48;4.38;;;1.40;;
59074;SDS011;44860;53.020;6.738;2023-04-25T08:56:16;3.15;;;1.20;;
59074;SDS011;44860;53.020;6.738;2023-04-25T08:58:50;2.30;;;0.90;;
59074;SDS011;44860;53.020;6.738;2023-04-25T09:01:17;2.67;;;0.90;;
59074;SDS011;44860;53.020;6.738;2023-04-25T09:03:44;3.45;;;1.05;;
59074;SDS011;44860;53.020;6.738;2023-04-25T09:06:10;3.17;;;1.10;;
59074;SDS011;44860;53.020;6.738;2023-04-25T09:08:37;5.82;;;1.42;;
59074;SDS011;44860;53.020;6.738;2023-04-25T09:11:05;2.72;;;0.88;;
59074;SDS011;44860;53.020;6.738;2023-04-25T09:13:31;7.68;;;1.40;;
59074;SDS011;44860;53.020;6.738;2023-04-25T09:15:57;2.38;;;1.10;;
59074;SDS011;44860;53.020;6.738;2023-04-25T09:18:24;4.57;;;1.02;;
59074;SDS011;44860;53.020;6.738;2023-04-25T09:20:54;4.88;;;1.38;;
59074;SDS011;44860;53.020;6.738;2023-04-25T09:23:21;6.38;;;1.55;;
59074;SDS011;44860;53.020;6.738;2023-04-25T09:25:48;6.07;;;1.30;;
59074;SDS011;44860;53.020;6.738;2023-04-25T09:28:15;3.70;;;1.13;;
59074;SDS011;44860;53.020;6.738;2023-04-25T09:30:41;3.25;;;0.95;;
59074;SDS011;44860;53.020;6.738;2023-04-25T09:33:07;5.38;;;1.45;;
59074;SDS011;44860;53.020;6.738;2023-04-25T09:35:44;5.70;;;1.30;;
59074;SDS011;44860;53.020;6.738;2023-04-25T09:38:14;5.93;;;1.27;;
59074;SDS011;44860;53.020;6.738;2023-04-25T09:40:49;5.70;;;1.27;;
59074;SDS011;44860;53.020;6.738;2023-04-25T09:43:20;5.10;;;1.48;;
59074;SDS011;44860;53.020;6.738;2023-04-25T09:45:47;6.65;;;1.42;;
59074;SDS011;44860;53.020;6.738;2023-04-25T09:48:17;10.88;;;1.85;;
59074;SDS011;44860;53.020;6.738;2023-04-25T09:50:44;11.30;;;1.60;;
59074;SDS011;44860;53.020;6.738;2023-04-25T09:53:10;5.90;;;1.60;;
59074;SDS011;44860;53.020;6.738;2023-04-25T09:55:36;5.88;;;1.60;;
59074;SDS011;44860;53.020;6.738;2023-04-25T09:58:05;15.48;;;2.28;;
59074;SDS011;44860;53.020;6.738;2023-04-25T10:00:34;9.82;;;1.70;;
59074;SDS011;44860;53.020;6.738;2023-04-25T10:03:03;12.32;;;2.17;;
59074;SDS011;44860;53.020;6.738;2023-04-25T10:05:32;9.60;;;2.20;;
59074;SDS011;44860;53.020;6.738;2023-04-25T10:08:02;9.32;;;1.90;;
59074;SDS011;44860;53.020;6.738;2023-04-25T10:10:31;8.45;;;1.77;;
59074;SDS011;44860;53.020;6.738;2023-04-25T10:13:01;8.75;;;1.73;;
59074;SDS011;44860;53.020;6.738;2023-04-25T10:15:28;7.97;;;1.65;;
59074;SDS011;44860;53.020;6.738;2023-04-25T10:17:55;6.60;;;1.92;;
59074;SDS011;44860;53.020;6.738;2023-04-25T10:20:22;4.93;;;1.98;;
59074;SDS011;44860;53.020;6.738;2023-04-25T10:22:48;4.35;;;1.50;;
59074;SDS011;44860;53.020;6.738;2023-04-25T10:25:19;12.70;;;2.05;;
59074;SDS011;44860;53.020;6.738;2023-04-25T10:27:45;7.57;;;2.08;;
59074;SDS011;44860;53.020;6.738;2023-04-25T10:30:13;11.63;;;2.15;;
59074;SDS011;44860;53.020;6.738;2023-04-25T10:32:43;10.88;;;1.90;;
59074;SDS011;44860;53.020;6.738;2023-04-25T10:40:23;7.85;;;1.83;;
59074;SDS011;44860;53.020;6.738;2023-04-25T10:42:51;10.55;;;1.70;;
59074;SDS011;44860;53.020;6.738;2023-04-25T10:45:18;8.82;;;1.73;;
59074;SDS011;44860;53.020;6.738;2023-04-25T10:47:45;7.40;;;1.77;;
59074;SDS011;44860;53.020;6.738;2023-04-25T10:50:11;6.55;;;1.90;;
59074;SDS011;44860;53.020;6.738;2023-04-25T10:52:41;9.75;;;1.95;;
59074;SDS011;44860;53.020;6.738;2023-04-25T10:55:07;8.38;;;2.05;;
59074;SDS011;44860;53.020;6.738;2023-04-25T10:57:40;14.05;;;2.10;;
59074;SDS011;44860;53.020;6.738;2023-04-25T11:00:16;10.15;;;1.98;;
59074;SDS011;44860;53.020;6.738;2023-04-25T11:02:55;9.73;;;1.90;;
59074;SDS011;44860;53.020;6.738;2023-04-25T11:07:56;11.30;;;1.80;;
59074;SDS011;44860;53.020;6.738;2023-04-25T11:10:26;7.95;;;2.05;;
59074;SDS011;44860;53.020;6.738;2023-04-25T11:12:53;6.05;;;1.55;;
59074;SDS011;44860;53.020;6.738;2023-04-25T11:15:19;9.32;;;1.63;;
59074;SDS011;44860;53.020;6.738;2023-04-25T11:17:45;6.25;;;1.40;;
59074;SDS011;44860;53.020;6.738;2023-04-25T11:20:11;5.85;;;1.70;;
59074;SDS011;44860;53.020;6.738;2023-04-25T11:22:39;10.75;;;1.73;;
59074;SDS011;44860;53.020;6.738;2023-04-25T11:25:08;10.57;;;2.10;;
59074;SDS011;44860;53.020;6.738;2023-04-25T11:27:39;14.50;;;2.53;;
59074;SDS011;44860;53.020;6.738;2023-04-25T11:30:16;7.93;;;1.85;;
59074;SDS011;44860;53.020;6.738;2023-04-25T11:32:42;8.73;;;1.98;;
59074;SDS011;44860;53.020;6.738;2023-04-25T11:35:09;11.35;;;2.10;;
59074;SDS011;44860;53.020;6.738;2023-04-25T11:37:36;7.57;;;2.13;;
59074;SDS011;44860;53.020;6.738;2023-04-25T11:40:03;14.05;;;3.03;;
59074;SDS011;44860;53.020;6.738;2023-04-25T11:42:31;10.85;;;2.20;;
59074;SDS011;44860;53.020;6.738;2023-04-25T11:44:58;11.98;;;2.90;;
59074;SDS011;44860;53.020;6.738;2023-04-25T11:47:31;10.82;;;2.20;;
59074;SDS011;44860;53.020;6.738;2023-04-25T11:49:58;10.57;;;2.25;;
59074;SDS011;44860;53.020;6.738;2023-04-25T11:52:34;9.73;;;2.33;;
59074;SDS011;44860;53.020;6.738;2023-04-25T11:55:08;10.20;;;2.30;;
59074;SDS011;44860;53.020;6.738;2023-04-25T11:57:41;7.00;;;1.80;;
59074;SDS011;44860;53.020;6.738;2023-04-25T12:00:11;8.40;;;2.00;;
59074;SDS011;44860;53.020;6.738;2023-04-25T12:02:46;7.72;;;2.03;;
59074;SDS011;44860;53.020;6.738;2023-04-25T12:05:14;10.73;;;2.03;;
59074;SDS011;44860;53.020;6.738;2023-04-25T12:07:43;10.05;;;1.63;;
59074;SDS011;44860;53.020;6.738;2023-04-25T12:12:37;8.63;;;1.67;;
59074;SDS011;44860;53.020;6.738;2023-04-25T12:15:10;8.30;;;1.67;;
59074;SDS011;44860;53.020;6.738;2023-04-25T12:17:46;7.55;;;1.83;;
59074;SDS011;44860;53.020;6.738;2023-04-25T12:20:21;7.72;;;1.85;;
59074;SDS011;44860;53.020;6.738;2023-04-25T12:22:50;6.68;;;1.63;;
59074;SDS011;44860;53.020;6.738;2023-04-25T12:33:18;9.27;;;1.80;;
59074;SDS011;44860;53.020;6.738;2023-04-25T12:35:44;8.07;;;1.77;;
59074;SDS011;44860;53.020;6.738;2023-04-25T12:38:10;6.03;;;1.60;;
59074;SDS011;44860;53.020;6.738;2023-04-25T12:40:36;7.13;;;1.90;;
59074;SDS011;44860;53.020;6.738;2023-04-25T12:43:02;7.85;;;1.67;;
59074;SDS011;44860;53.020;6.738;2023-04-25T12:45:27;9.60;;;1.90;;
59074;SDS011;44860;53.020;6.738;2023-04-25T12:47:53;9.95;;;1.77;;
59074;SDS011;44860;53.020;6.738;2023-04-25T12:50:18;9.73;;;1.90;;
59074;SDS011;44860;53.020;6.738;2023-04-25T12:52:44;11.65;;;2.15;;
59074;SDS011;44860;53.020;6.738;2023-04-25T12:55:10;9.00;;;1.70;;
59074;SDS011;44860;53.020;6.738;2023-04-25T12:57:35;9.85;;;2.00;;
59074;SDS011;44860;53.020;6.738;2023-04-25T13:00:01;11.10;;;1.95;;
59074;SDS011;44860;53.020;6.738;2023-04-25T13:02:29;6.28;;;1.50;;
59074;SDS011;44860;53.020;6.738;2023-04-25T13:04:54;9.80;;;1.70;;
59074;SDS011;44860;53.020;6.738;2023-04-25T13:07:20;6.50;;;1.85;;
59074;SDS011;44860;53.020;6.738;2023-04-25T13:09:46;8.30;;;1.60;;
59074;SDS011;44860;53.020;6.738;2023-04-25T13:12:11;7.22;;;1.58;;
59074;SDS011;44860;53.020;6.738;2023-04-25T13:14:37;10.65;;;2.08;;
59074;SDS011;44860;53.020;6.738;2023-04-25T13:17:02;6.85;;;1.50;;
59074;SDS011;44860;53.020;6.738;2023-04-25T13:19:28;8.10;;;2.03;;
59074;SDS011;44860;53.020;6.738;2023-04-25T13:21:54;6.93;;;1.52;;
59074;SDS011;44860;53.020;6.738;2023-04-25T13:24:19;7.25;;;1.50;;
59074;SDS011;44860;53.020;6.738;2023-04-25T13:26:45;9.05;;;1.52;;
59074;SDS011;44860;53.020;6.738;2023-04-25T13:29:11;7.85;;;1.63;;
59074;SDS011;44860;53.020;6.738;2023-04-25T13:31:36;6.10;;;1.67;;
59074;SDS011;44860;53.020;6.738;2023-04-25T13:34:02;6.53;;;1.50;;
59074;SDS011;44860;53.020;6.738;2023-04-25T13:36:28;6.10;;;1.58;;
59074;SDS011;44860;53.020;6.738;2023-04-25T13:38:54;5.75;;;1.52;;
59074;SDS011;44860;53.020;6.738;2023-04-25T13:41:19;7.45;;;1.80;;
59074;SDS011;44860;53.020;6.738;2023-04-25T13:43:46;9.00;;;1.90;;
59074;SDS011;44860;53.020;6.738;2023-04-25T13:46:12;5.78;;;1.60;;
59074;SDS011;44860;53.020;6.738;2023-04-25T13:48:40;8.55;;;1.60;;
59074;SDS011;44860;53.020;6.738;2023-04-25T13:51:11;8.88;;;2.00;;
59074;SDS011;44860;53.020;6.738;2023-04-25T13:53:37;12.85;;;2.20;;
59074;SDS011;44860;53.020;6.738;2023-04-25T13:56:02;8.50;;;2.38;;
59074;SDS011;44860;53.020;6.738;2023-04-25T13:58:29;9.63;;;2.10;;
59074;SDS011;44860;53.020;6.738;2023-04-25T14:00:55;11.27;;;2.28;;
59074;SDS011;44860;53.020;6.738;2023-04-25T14:03:21;8.90;;;1.98;;
59074;SDS011;44860;53.020;6.738;2023-04-25T14:05:46;8.32;;;1.90;;
59074;SDS011;44860;53.020;6.738;2023-04-25T14:08:12;8.75;;;2.10;;
59074;SDS011;44860;53.020;6.738;2023-04-25T14:10:38;10.85;;;2.15;;
59074;SDS011;44860;53.020;6.738;2023-04-25T14:13:04;13.15;;;2.38;;
59074;SDS011;44860;53.020;6.738;2023-04-25T14:15:33;9.25;;;1.80;;
59074;SDS011;44860;53.020;6.738;2023-04-25T14:17:59;10.07;;;2.10;;
59074;SDS011;44860;53.020;6.738;2023-04-25T14:20:25;7.82;;;1.98;;
59074;SDS011;44860;53.020;6.738;2023-04-25T14:22:51;9.85;;;1.77;;
59074;SDS011;44860;53.020;6.738;2023-04-25T14:25:19;13.05;;;2.22;;
59074;SDS011;44860;53.020;6.738;2023-04-25T14:27:45;7.07;;;1.60;;
59074;SDS011;44860;53.020;6.738;2023-04-25T14:30:14;6.88;;;1.98;;
59074;SDS011;44860;53.020;6.738;2023-04-25T14:32:44;8.40;;;2.05;;
59074;SDS011;44860;53.020;6.738;2023-04-25T14:35:10;6.82;;;1.88;;
59074;SDS011;44860;53.020;6.738;2023-04-25T14:37:36;10.73;;;2.10;;
59074;SDS011;44860;53.020;6.738;2023-04-25T14:40:02;11.07;;;2.10;;
59074;SDS011;44860;53.020;6.738;2023-04-25T14:42:28;7.15;;;2.08;;
59074;SDS011;44860;53.020;6.738;2023-04-25T14:44:53;7.40;;;1.73;;
59074;SDS011;44860;53.020;6.738;2023-04-25T14:47:19;10.93;;;2.05;;
59074;SDS011;44860;53.020;6.738;2023-04-25T14:49:45;6.10;;;1.65;;
59074;SDS011;44860;53.020;6.738;2023-04-25T14:52:16;9.10;;;2.45;;
59074;SDS011;44860;53.020;6.738;2023-04-25T14:54:41;9.07;;;2.10;;